createdAt,value
2023-03-29T00:00:34.022Z,409.00
2023-03-29T00:01:36.029Z,408.00
2023-03-29T00:02:34.057Z,406.00
2023-03-29T00:03:34.136Z,404.00
2023-03-29T00:04:34.183Z,403.00
2023-03-29T00:05:34.056Z,405.00
2023-03-29T00:06:34.054Z,405.00
2023-03-29T00:07:34.044Z,404.00
2023-03-29T00:08:34.095Z,405.00
2023-03-29T00:09:34.033Z,405.00
2023-03-29T00:10:34.104Z,405.00
2023-03-29T00:11:34.062Z,403.00
2023-03-29T00:12:34.055Z,405.00
2023-03-29T00:13:34.052Z,405.00
2023-03-29T00:14:34.038Z,405.00
2023-03-29T00:15:34.037Z,405.00
2023-03-29T00:16:34.083Z,404.00
2023-03-29T00:17:34.101Z,404.00
2023-03-29T00:18:34.022Z,403.00
2023-03-29T00:19:34.037Z,405.00
2023-03-29T00:20:34.030Z,407.00
2023-03-29T00:21:34.055Z,406.00
2023-03-29T00:22:34.066Z,405.00
2023-03-29T00:23:34.038Z,403.00
2023-03-29T00:24:34.050Z,400.00
2023-03-29T00:25:34.062Z,398.00
2023-03-29T00:26:34.071Z,398.00
2023-03-29T00:27:34.051Z,397.00
2023-03-29T00:28:34.034Z,397.00
2023-03-29T00:29:34.054Z,396.00
2023-03-29T00:30:34.026Z,397.00
2023-03-29T00:31:34.079Z,397.00
2023-03-29T00:32:34.149Z,398.00
2023-03-29T00:33:34.032Z,397.00
2023-03-29T00:34:34.032Z,397.00
2023-03-29T00:35:34.074Z,396.00
2023-03-29T00:36:34.022Z,395.00
2023-03-29T00:37:34.111Z,398.00
2023-03-29T00:38:34.013Z,398.00
2023-03-29T00:39:34.014Z,399.00
2023-03-29T00:40:34.018Z,400.00
2023-03-29T00:41:34.011Z,401.00
2023-03-29T00:42:33.993Z,402.00
2023-03-29T00:43:33.998Z,404.00
2023-03-29T00:44:34.009Z,404.00
2023-03-29T00:45:33.995Z,404.00
2023-03-29T00:46:34.044Z,407.00
2023-03-29T00:47:34.095Z,407.00
2023-03-29T00:48:33.997Z,405.00
2023-03-29T00:49:33.989Z,403.00
2023-03-29T00:50:34.137Z,404.00
2023-03-29T00:51:33.972Z,403.00
2023-03-29T00:52:33.970Z,405.00
2023-03-29T00:53:33.951Z,406.00
2023-03-29T00:54:33.951Z,403.00
2023-03-29T00:55:33.950Z,403.00
2023-03-29T00:56:33.968Z,400.00
2023-03-29T00:57:33.991Z,400.00
2023-03-29T00:58:33.941Z,401.00
2023-03-29T00:59:33.945Z,399.00
2023-03-29T01:00:33.948Z,398.00
2023-03-29T01:01:34.094Z,397.00
2023-03-29T01:02:33.965Z,396.00
2023-03-29T01:03:33.953Z,399.00
2023-03-29T01:04:33.964Z,402.00
2023-03-29T01:05:33.965Z,404.00
2023-03-29T01:06:34.008Z,407.00
2023-03-29T01:07:33.908Z,409.00
2023-03-29T01:08:33.904Z,407.00
2023-03-29T01:09:33.903Z,403.00
2023-03-29T01:10:33.911Z,401.00
2023-03-29T01:11:33.897Z,398.00
2023-03-29T01:12:33.890Z,402.00
2023-03-29T01:13:33.891Z,402.00
2023-03-29T01:14:33.899Z,402.00
2023-03-29T01:15:33.875Z,404.00
2023-03-29T01:16:33.915Z,405.00
2023-03-29T01:17:33.924Z,405.00
2023-03-29T01:18:33.869Z,406.00
2023-03-29T01:19:33.889Z,406.00
2023-03-29T01:20:33.876Z,405.00
2023-03-29T01:21:33.877Z,406.00
2023-03-29T01:22:33.891Z,406.00
2023-03-29T01:23:33.842Z,407.00
2023-03-29T01:24:33.835Z,404.00
2023-03-29T01:25:33.839Z,408.00
2023-03-29T01:26:33.849Z,405.00
2023-03-29T01:27:33.838Z,405.00
2023-03-29T01:28:33.858Z,405.00
2023-03-29T01:29:33.829Z,406.00
2023-03-29T01:30:33.816Z,407.00
2023-03-29T01:31:33.875Z,407.00
2023-03-29T01:32:33.853Z,406.00
2023-03-29T01:33:33.809Z,404.00
2023-03-29T01:34:33.808Z,405.00
2023-03-29T01:35:33.833Z,405.00
2023-03-29T01:36:33.814Z,402.00
2023-03-29T01:37:33.815Z,403.00
2023-03-29T01:38:33.801Z,403.00
2023-03-29T01:39:33.784Z,402.00
2023-03-29T01:40:33.788Z,402.00
2023-03-29T01:41:33.793Z,401.00
2023-03-29T01:42:33.780Z,402.00
2023-03-29T01:43:33.781Z,400.00
2023-03-29T01:44:33.775Z,401.00
2023-03-29T01:45:33.787Z,400.00
2023-03-29T01:46:33.879Z,404.00
2023-03-29T01:47:33.828Z,406.00
2023-03-29T01:48:33.780Z,405.00
2023-03-29T01:49:33.778Z,405.00
2023-03-29T01:50:33.777Z,406.00
2023-03-29T01:51:33.766Z,406.00
2023-03-29T01:52:33.783Z,405.00
2023-03-29T01:53:33.781Z,402.00
2023-03-29T01:54:33.788Z,406.00
2023-03-29T01:55:33.778Z,406.00
2023-03-29T01:56:33.772Z,404.00
2023-03-29T01:57:33.783Z,403.00
2023-03-29T01:58:33.811Z,404.00
2023-03-29T01:59:33.779Z,403.00
2023-03-29T02:00:33.784Z,404.00
2023-03-29T02:01:33.805Z,405.00
2023-03-29T02:02:33.838Z,406.00
2023-03-29T02:03:33.899Z,407.00
2023-03-29T02:04:33.745Z,407.00
2023-03-29T02:05:33.779Z,409.00
2023-03-29T02:06:33.764Z,411.00
2023-03-29T02:07:33.736Z,411.00
2023-03-29T02:08:33.748Z,411.00
2023-03-29T02:09:33.745Z,410.00
2023-03-29T02:10:33.742Z,410.00
2023-03-29T02:11:33.737Z,409.00
2023-03-29T02:12:33.748Z,409.00
2023-03-29T02:13:33.740Z,407.00
2023-03-29T02:14:33.744Z,407.00
2023-03-29T02:15:33.817Z,405.00
2023-03-29T02:16:33.723Z,406.00
2023-03-29T02:17:33.741Z,405.00
2023-03-29T02:18:33.709Z,406.00
2023-03-29T02:19:33.711Z,406.00
2023-03-29T02:20:33.712Z,407.00
2023-03-29T02:21:33.724Z,407.00
2023-03-29T02:22:33.725Z,406.00
2023-03-29T02:23:33.718Z,407.00
2023-03-29T02:24:33.717Z,406.00
2023-03-29T02:25:33.721Z,407.00
2023-03-29T02:26:33.715Z,408.00
2023-03-29T02:27:33.696Z,410.00
2023-03-29T02:28:33.738Z,412.00
2023-03-29T02:29:33.712Z,413.00
2023-03-29T02:30:33.703Z,410.00
2023-03-29T02:31:33.737Z,411.00
2023-03-29T02:32:33.719Z,411.00
2023-03-29T02:33:33.694Z,408.00
2023-03-29T02:34:33.694Z,408.00
2023-03-29T02:35:33.682Z,409.00
2023-03-29T02:36:33.678Z,410.00
2023-03-29T02:37:33.726Z,410.00
2023-03-29T02:38:33.669Z,409.00
2023-03-29T02:39:33.671Z,409.00
2023-03-29T02:40:33.677Z,406.00
2023-03-29T02:41:33.656Z,404.00
2023-03-29T02:42:33.660Z,407.00
2023-03-29T02:43:33.667Z,407.00
2023-03-29T02:44:33.641Z,407.00
2023-03-29T02:45:33.649Z,407.00
2023-03-29T02:46:33.653Z,408.00
2023-03-29T02:47:33.668Z,410.00
2023-03-29T02:48:33.652Z,411.00
2023-03-29T02:49:33.658Z,409.00
2023-03-29T02:50:33.676Z,410.00
2023-03-29T02:51:33.639Z,410.00
2023-03-29T02:52:33.659Z,408.00
2023-03-29T02:53:33.646Z,408.00
2023-03-29T02:54:33.638Z,407.00
2023-03-29T02:55:33.640Z,408.00
2023-03-29T02:56:33.624Z,406.00
2023-03-29T02:57:33.630Z,407.00
2023-03-29T02:58:33.643Z,406.00
2023-03-29T02:59:33.637Z,406.00
2023-03-29T03:00:33.640Z,407.00
2023-03-29T03:01:33.665Z,405.00
2023-03-29T03:02:33.673Z,406.00
2023-03-29T03:03:33.726Z,407.00
2023-03-29T03:04:33.591Z,408.00
2023-03-29T03:05:33.623Z,408.00
2023-03-29T03:06:33.624Z,405.00
2023-03-29T03:07:33.622Z,406.00
2023-03-29T03:08:33.606Z,407.00
2023-03-29T03:09:33.596Z,407.00
2023-03-29T03:10:33.590Z,406.00
2023-03-29T03:11:33.615Z,406.00
2023-03-29T03:12:33.591Z,404.00
2023-03-29T03:13:33.600Z,404.00
2023-03-29T03:14:33.586Z,403.00
2023-03-29T03:15:33.584Z,403.00
2023-03-29T03:16:33.652Z,402.00
2023-03-29T03:17:33.641Z,400.00
2023-03-29T03:18:33.586Z,398.00
2023-03-29T03:19:33.566Z,397.00
2023-03-29T03:20:33.623Z,396.00
2023-03-29T03:21:33.603Z,397.00
2023-03-29T03:22:33.560Z,399.00
2023-03-29T03:23:33.551Z,399.00
2023-03-29T03:24:33.546Z,400.00
2023-03-29T03:25:33.553Z,401.00
2023-03-29T03:26:33.581Z,403.00
2023-03-29T03:27:33.542Z,405.00
2023-03-29T03:28:33.562Z,406.00
2023-03-29T03:29:33.563Z,409.00
2023-03-29T03:30:33.543Z,408.00
2023-03-29T03:31:33.620Z,410.00
2023-03-29T03:32:33.581Z,409.00
2023-03-29T03:33:33.561Z,407.00
2023-03-29T03:34:33.537Z,406.00
2023-03-29T03:35:33.566Z,407.00
2023-03-29T03:36:33.522Z,410.00
2023-03-29T03:37:33.543Z,411.00
2023-03-29T03:38:33.536Z,411.00
2023-03-29T03:39:33.563Z,413.00
2023-03-29T03:40:33.563Z,414.00
2023-03-29T03:41:33.531Z,415.00
2023-03-29T03:42:33.534Z,417.00
2023-03-29T03:43:33.510Z,418.00
2023-03-29T03:44:33.505Z,415.00
2023-03-29T03:45:33.573Z,414.00
2023-03-29T03:46:33.505Z,415.00
2023-03-29T03:47:33.524Z,414.00
2023-03-29T03:48:33.497Z,413.00
2023-03-29T03:49:33.494Z,416.00
2023-03-29T03:50:33.480Z,414.00
2023-03-29T03:51:33.501Z,414.00
2023-03-29T03:52:33.496Z,416.00
2023-03-29T03:53:33.485Z,416.00
2023-03-29T03:54:33.473Z,416.00
2023-03-29T03:55:33.463Z,417.00
2023-03-29T03:56:33.490Z,419.00
2023-03-29T03:57:33.470Z,418.00
2023-03-29T03:58:33.468Z,417.00
2023-03-29T03:59:33.470Z,416.00
2023-03-29T04:00:33.484Z,415.00
2023-03-29T04:01:33.467Z,414.00
2023-03-29T04:02:33.628Z,415.00
2023-03-29T04:03:33.524Z,416.00
2023-03-29T04:04:33.509Z,416.00
2023-03-29T04:05:33.485Z,416.00
2023-03-29T04:06:33.474Z,416.00
2023-03-29T04:07:33.472Z,417.00
2023-03-29T04:08:33.468Z,416.00
2023-03-29T04:09:33.516Z,414.00
2023-03-29T04:10:33.458Z,416.00
2023-03-29T04:11:33.477Z,412.00
2023-03-29T04:12:33.457Z,412.00
2023-03-29T04:13:33.465Z,411.00
2023-03-29T04:14:33.455Z,410.00
2023-03-29T04:15:33.483Z,412.00
2023-03-29T04:16:33.458Z,414.00
2023-03-29T04:17:33.610Z,415.00
2023-03-29T04:18:33.580Z,416.00
2023-03-29T04:19:33.470Z,420.00
2023-03-29T04:20:33.468Z,421.00
2023-03-29T04:21:33.460Z,421.00
2023-03-29T04:22:33.446Z,423.00
2023-03-29T04:23:33.446Z,420.00
2023-03-29T04:24:33.454Z,420.00
2023-03-29T04:25:33.462Z,419.00
2023-03-29T04:26:33.435Z,420.00
2023-03-29T04:27:33.446Z,418.00
2023-03-29T04:28:33.453Z,417.00
2023-03-29T04:29:33.533Z,416.00
2023-03-29T04:30:33.423Z,414.00
2023-03-29T04:31:33.463Z,415.00
2023-03-29T04:32:33.490Z,417.00
2023-03-29T04:33:33.477Z,416.00
2023-03-29T04:34:33.450Z,415.00
2023-03-29T04:35:33.606Z,413.00
2023-03-29T04:36:33.440Z,414.00
2023-03-29T04:37:33.465Z,412.00
2023-03-29T04:38:33.476Z,414.00
2023-03-29T04:39:33.455Z,414.00
2023-03-29T04:40:33.470Z,414.00
2023-03-29T04:41:33.448Z,415.00
2023-03-29T04:42:33.436Z,416.00
2023-03-29T04:43:33.457Z,415.00
2023-03-29T04:44:33.511Z,416.00
2023-03-29T04:45:33.454Z,418.00
2023-03-29T04:46:33.536Z,420.00
2023-03-29T04:47:33.486Z,420.00
2023-03-29T04:48:33.456Z,418.00
2023-03-29T04:49:33.473Z,420.00
2023-03-29T04:50:33.466Z,423.00
2023-03-29T04:51:33.503Z,421.00
2023-03-29T04:52:33.544Z,419.00
2023-03-29T04:53:33.528Z,421.00
2023-03-29T04:54:33.547Z,422.00
2023-03-29T04:55:33.530Z,424.00
2023-03-29T04:56:33.541Z,427.00
2023-03-29T04:57:33.579Z,428.00
2023-03-29T04:58:33.578Z,428.00
2023-03-29T04:59:33.585Z,428.00
2023-03-29T05:00:33.614Z,426.00
2023-03-29T05:01:33.632Z,422.00
2023-03-29T05:02:33.660Z,422.00
2023-03-29T05:03:33.646Z,422.00
2023-03-29T05:04:33.656Z,420.00
2023-03-29T05:05:33.656Z,421.00
2023-03-29T05:06:33.666Z,419.00
2023-03-29T05:07:33.639Z,418.00
2023-03-29T05:08:33.675Z,419.00
2023-03-29T05:09:35.523Z,419.00
2023-03-29T05:10:33.672Z,415.00
2023-03-29T05:11:33.703Z,416.00
2023-03-29T05:12:33.697Z,415.00
2023-03-29T05:13:33.705Z,414.00
2023-03-29T05:14:33.719Z,415.00
2023-03-29T05:15:33.704Z,415.00
2023-03-29T05:16:33.764Z,415.00
2023-03-29T05:17:33.746Z,417.00
2023-03-29T05:18:33.743Z,417.00
2023-03-29T05:19:33.714Z,418.00
2023-03-29T05:20:33.741Z,420.00
2023-03-29T05:21:33.731Z,421.00
2023-03-29T05:22:33.739Z,420.00
2023-03-29T05:23:33.743Z,419.00
2023-03-29T05:24:33.726Z,420.00
2023-03-29T05:25:33.992Z,419.00
2023-03-29T05:26:33.734Z,420.00
2023-03-29T05:27:33.744Z,420.00
2023-03-29T05:28:33.818Z,422.00
2023-03-29T05:29:33.759Z,425.00
2023-03-29T05:30:33.794Z,430.00
2023-03-29T05:31:33.793Z,430.00
2023-03-29T05:32:33.810Z,439.00
2023-03-29T05:33:33.834Z,451.00
2023-03-29T05:34:33.808Z,494.00
2023-03-29T05:35:33.898Z,509.00
2023-03-29T05:36:33.846Z,508.00
2023-03-29T05:37:33.855Z,513.00
2023-03-29T05:38:33.946Z,525.00
2023-03-29T05:39:36.406Z,555.00
2023-03-29T05:40:33.926Z,578.00
2023-03-29T05:41:33.931Z,592.00
2023-03-29T05:42:33.930Z,613.00
2023-03-29T05:43:33.907Z,631.00
2023-03-29T05:44:33.903Z,642.00
2023-03-29T05:45:33.951Z,647.00
2023-03-29T05:46:33.901Z,652.00
2023-03-29T05:47:33.885Z,660.00
2023-03-29T05:48:33.862Z,670.00
2023-03-29T05:49:33.849Z,691.00
2023-03-29T05:50:33.872Z,697.00
2023-03-29T05:51:33.859Z,694.00
2023-03-29T05:52:33.832Z,680.00
2023-03-29T05:53:33.838Z,604.00
2023-03-29T05:54:33.820Z,597.00
2023-03-29T05:55:33.846Z,592.00
2023-03-29T05:56:33.827Z,583.00
2023-03-29T05:57:33.811Z,568.00
2023-03-29T05:58:33.800Z,562.00
2023-03-29T05:59:33.821Z,558.00
2023-03-29T06:00:33.813Z,550.00
2023-03-29T06:01:33.786Z,575.00
2023-03-29T06:02:33.886Z,573.00
2023-03-29T06:03:33.975Z,570.00
2023-03-29T06:04:34.007Z,577.00
2023-03-29T06:05:33.792Z,582.00
2023-03-29T06:06:33.745Z,688.00
2023-03-29T06:07:33.745Z,689.00
2023-03-29T06:08:33.797Z,686.00
2023-03-29T06:09:33.717Z,680.00
2023-03-29T06:10:33.787Z,681.00
2023-03-29T06:11:33.726Z,685.00
2023-03-29T06:12:33.715Z,686.00
2023-03-29T06:13:33.694Z,687.00
2023-03-29T06:14:33.697Z,689.00
2023-03-29T06:15:33.702Z,691.00
2023-03-29T06:16:33.756Z,700.00
2023-03-29T06:17:33.798Z,707.00
2023-03-29T06:18:33.693Z,716.00
2023-03-29T06:19:33.676Z,723.00
2023-03-29T06:20:33.676Z,733.00
2023-03-29T06:21:33.732Z,738.00
2023-03-29T06:22:33.771Z,747.00
2023-03-29T06:23:33.795Z,756.00
2023-03-29T06:24:33.857Z,763.00
2023-03-29T06:25:33.891Z,769.00
2023-03-29T06:26:33.952Z,773.00
2023-03-29T06:27:33.969Z,779.00
2023-03-29T06:28:34.006Z,786.00
2023-03-29T06:29:34.026Z,791.00
2023-03-29T06:30:34.073Z,796.00
2023-03-29T06:31:34.629Z,807.00
2023-03-29T06:32:34.142Z,813.00
2023-03-29T06:33:34.232Z,817.00
2023-03-29T06:34:35.518Z,815.00
2023-03-29T06:35:34.303Z,816.00
2023-03-29T06:36:34.314Z,822.00
2023-03-29T06:37:34.337Z,838.00
2023-03-29T06:38:34.359Z,850.00
2023-03-29T06:39:34.390Z,858.00
2023-03-29T06:40:34.397Z,905.00
2023-03-29T06:41:34.409Z,931.00
2023-03-29T06:42:34.452Z,934.00
2023-03-29T06:43:34.464Z,928.00
2023-03-29T06:44:34.486Z,924.00
2023-03-29T06:45:34.512Z,924.00
2023-03-29T06:46:35.351Z,924.00
2023-03-29T06:47:35.051Z,929.00
2023-03-29T06:48:34.605Z,954.00
2023-03-29T06:49:34.630Z,955.00
2023-03-29T06:50:34.642Z,956.00
2023-03-29T06:51:35.431Z,959.00
2023-03-29T06:52:35.023Z,960.00
2023-03-29T06:53:34.662Z,970.00
2023-03-29T06:54:34.660Z,977.00
2023-03-29T06:55:34.681Z,976.00
2023-03-29T06:56:34.680Z,971.00
2023-03-29T06:57:34.704Z,972.00
2023-03-29T06:58:34.721Z,970.00
2023-03-29T06:59:35.021Z,969.00
2023-03-29T07:00:34.726Z,972.00
2023-03-29T07:01:34.920Z,973.00
2023-03-29T07:02:35.175Z,975.00
2023-03-29T07:03:34.787Z,977.00
2023-03-29T07:04:34.818Z,980.00
2023-03-29T07:05:34.781Z,978.00
2023-03-29T07:06:34.808Z,974.00
2023-03-29T07:07:35.036Z,855.00
2023-03-29T07:08:34.842Z,928.00
2023-03-29T07:09:34.840Z,939.00
2023-03-29T07:10:34.861Z,936.00
2023-03-29T07:11:34.893Z,936.00
2023-03-29T07:12:34.883Z,934.00
2023-03-29T07:13:34.965Z,928.00
2023-03-29T07:14:34.928Z,924.00
2023-03-29T07:15:34.933Z,924.00
2023-03-29T07:16:35.004Z,921.00
2023-03-29T07:17:35.102Z,921.00
2023-03-29T07:18:34.972Z,925.00
2023-03-29T07:19:34.995Z,926.00
2023-03-29T07:20:34.991Z,926.00
2023-03-29T07:21:36.692Z,925.00
2023-03-29T07:22:34.977Z,925.00
2023-03-29T07:23:34.967Z,928.00
2023-03-29T07:24:34.982Z,923.00
2023-03-29T07:25:34.964Z,916.00
2023-03-29T07:26:34.947Z,920.00
2023-03-29T07:27:35.049Z,920.00
2023-03-29T07:28:35.039Z,918.00
2023-03-29T07:29:34.926Z,907.00
2023-03-29T07:30:34.930Z,895.00
2023-03-29T07:31:34.913Z,882.00
2023-03-29T07:32:35.009Z,888.00
2023-03-29T07:33:35.157Z,894.00
2023-03-29T07:34:34.909Z,891.00
2023-03-29T07:35:35.102Z,889.00
2023-03-29T07:36:34.883Z,895.00
2023-03-29T07:37:35.055Z,899.00
2023-03-29T07:38:34.869Z,904.00
2023-03-29T07:39:34.888Z,904.00
2023-03-29T07:40:34.863Z,903.00
2023-03-29T07:41:34.863Z,899.00
2023-03-29T07:42:34.846Z,892.00
2023-03-29T07:43:34.831Z,886.00
2023-03-29T07:44:34.820Z,881.00
2023-03-29T07:45:34.835Z,879.00
2023-03-29T07:46:34.837Z,872.00
2023-03-29T07:47:34.901Z,870.00
2023-03-29T07:48:34.791Z,863.00
2023-03-29T07:49:35.047Z,848.00
2023-03-29T07:50:34.813Z,837.00
2023-03-29T07:51:34.773Z,820.00
2023-03-29T07:52:34.766Z,806.00
2023-03-29T07:53:34.753Z,789.00
2023-03-29T07:54:34.795Z,776.00
2023-03-29T07:55:34.769Z,769.00
2023-03-29T07:56:34.751Z,753.00
2023-03-29T07:57:34.755Z,722.00
2023-03-29T07:58:34.763Z,683.00
2023-03-29T07:59:35.049Z,682.00
2023-03-29T08:00:34.812Z,685.00
2023-03-29T08:01:34.724Z,687.00
2023-03-29T08:02:34.706Z,692.00
2023-03-29T08:03:34.761Z,693.00
2023-03-29T08:04:34.781Z,690.00
2023-03-29T08:05:41.296Z,685.00
2023-03-29T08:06:35.660Z,676.00
2023-03-29T08:07:34.668Z,675.00
2023-03-29T08:08:34.674Z,664.00
2023-03-29T08:09:34.646Z,651.00
2023-03-29T08:10:34.661Z,634.00
2023-03-29T08:11:34.649Z,622.00
2023-03-29T08:12:34.652Z,618.00
2023-03-29T08:13:34.624Z,604.00
2023-03-29T08:14:34.614Z,612.00
2023-03-29T08:15:35.072Z,615.00
2023-03-29T08:16:34.665Z,616.00
2023-03-29T08:17:34.649Z,622.00
2023-03-29T08:18:35.097Z,624.00
2023-03-29T08:19:34.594Z,624.00
2023-03-29T08:20:35.052Z,615.00
2023-03-29T08:21:34.572Z,612.00
2023-03-29T08:22:34.584Z,608.00
2023-03-29T08:23:34.566Z,613.00
2023-03-29T08:24:34.590Z,621.00
2023-03-29T08:25:34.552Z,625.00
2023-03-29T08:26:34.544Z,630.00
2023-03-29T08:27:34.566Z,637.00
2023-03-29T08:28:34.589Z,646.00
2023-03-29T08:29:34.649Z,650.00
2023-03-29T08:30:34.623Z,654.00
2023-03-29T08:31:34.819Z,658.00
2023-03-29T08:32:34.662Z,660.00
2023-03-29T08:33:34.655Z,661.00
2023-03-29T08:34:34.661Z,662.00
2023-03-29T08:35:34.791Z,665.00
2023-03-29T08:36:34.688Z,665.00
2023-03-29T08:37:34.672Z,661.00
2023-03-29T08:38:34.709Z,670.00
2023-03-29T08:39:34.705Z,676.00
2023-03-29T08:40:34.751Z,742.00
2023-03-29T08:41:34.718Z,767.00
2023-03-29T08:42:34.734Z,775.00
2023-03-29T08:43:35.061Z,788.00
2023-03-29T08:44:34.697Z,831.00
2023-03-29T08:45:34.717Z,817.00
2023-03-29T08:46:35.661Z,816.00
2023-03-29T08:47:34.723Z,850.00
2023-03-29T08:48:34.715Z,853.00
2023-03-29T08:49:34.731Z,856.00
2023-03-29T08:50:34.729Z,860.00
2023-03-29T08:51:34.736Z,864.00
2023-03-29T08:52:34.752Z,870.00
2023-03-29T08:53:34.811Z,880.00
2023-03-29T08:54:34.796Z,886.00
2023-03-29T08:55:34.748Z,894.00
2023-03-29T08:56:34.775Z,897.00
2023-03-29T08:57:34.785Z,903.00
2023-03-29T08:58:34.865Z,921.00
2023-03-29T08:59:34.892Z,929.00
2023-03-29T09:00:34.841Z,926.00
2023-03-29T09:01:35.018Z,923.00
2023-03-29T09:02:35.056Z,923.00
2023-03-29T09:03:35.030Z,931.00
2023-03-29T09:04:35.023Z,939.00
2023-03-29T09:05:35.064Z,939.00
2023-03-29T09:06:35.139Z,943.00
2023-03-29T09:07:35.153Z,939.00
2023-03-29T09:08:35.165Z,937.00
2023-03-29T09:09:35.262Z,943.00
2023-03-29T09:10:35.257Z,949.00
2023-03-29T09:11:35.328Z,948.00
2023-03-29T09:12:36.605Z,951.00
2023-03-29T09:13:35.483Z,951.00
2023-03-29T09:14:35.528Z,957.00
2023-03-29T09:15:35.562Z,961.00
2023-03-29T09:16:35.643Z,978.00
2023-03-29T09:17:36.113Z,993.00
2023-03-29T09:18:35.747Z,999.00
2023-03-29T09:19:35.798Z,999.00
2023-03-29T09:20:35.848Z,998.00
2023-03-29T09:21:35.924Z,999.00
2023-03-29T09:22:35.966Z,1005.00
2023-03-29T09:23:36.017Z,1008.00
2023-03-29T09:24:36.079Z,1010.00
2023-03-29T09:25:41.075Z,1011.00
2023-03-29T09:26:37.154Z,1007.00
2023-03-29T09:27:36.636Z,978.00
2023-03-29T09:28:36.105Z,879.00
2023-03-29T09:29:36.131Z,754.00
2023-03-29T09:30:36.091Z,774.00
2023-03-29T09:31:36.146Z,775.00
2023-03-29T09:32:36.190Z,671.00
2023-03-29T09:33:36.081Z,641.00
2023-03-29T09:34:36.066Z,708.00
2023-03-29T09:35:36.142Z,696.00
2023-03-29T09:36:36.043Z,795.00
2023-03-29T09:37:36.062Z,824.00
2023-03-29T09:38:36.039Z,815.00
2023-03-29T09:39:36.024Z,888.00
2023-03-29T09:40:36.035Z,884.00
2023-03-29T09:41:36.020Z,880.00
2023-03-29T09:42:36.004Z,874.00
2023-03-29T09:43:35.999Z,871.00
2023-03-29T09:44:36.076Z,868.00
2023-03-29T09:45:35.996Z,880.00
2023-03-29T09:46:35.997Z,893.00
2023-03-29T09:47:36.055Z,903.00
2023-03-29T09:48:36.108Z,902.00
2023-03-29T09:49:36.129Z,911.00
2023-03-29T09:50:36.180Z,934.00
2023-03-29T09:51:36.230Z,942.00
2023-03-29T09:52:36.289Z,956.00
2023-03-29T09:53:36.343Z,946.00
2023-03-29T09:54:36.400Z,948.00
2023-03-29T09:55:36.451Z,947.00
2023-03-29T09:56:36.518Z,947.00
2023-03-29T09:57:36.591Z,950.00
2023-03-29T09:58:36.629Z,953.00
2023-03-29T09:59:36.679Z,955.00
2023-03-29T10:00:36.800Z,955.00
2023-03-29T10:01:36.791Z,956.00
2023-03-29T10:02:36.845Z,958.00
2023-03-29T10:03:37.137Z,960.00
2023-03-29T10:04:37.181Z,960.00
2023-03-29T10:05:36.971Z,956.00
2023-03-29T10:06:37.010Z,952.00
2023-03-29T10:07:37.055Z,950.00
2023-03-29T10:08:37.105Z,948.00
2023-03-29T10:09:37.609Z,947.00
2023-03-29T10:10:37.186Z,834.00
2023-03-29T10:11:37.245Z,888.00
2023-03-29T10:12:37.251Z,874.00
2023-03-29T10:13:37.309Z,756.00
2023-03-29T10:14:37.362Z,702.00
2023-03-29T10:15:37.412Z,744.00
2023-03-29T10:16:37.478Z,743.00
2023-03-29T10:17:37.553Z,758.00
2023-03-29T10:18:37.553Z,746.00
2023-03-29T10:19:38.123Z,744.00
2023-03-29T10:20:37.684Z,745.00
2023-03-29T10:21:37.731Z,741.00
2023-03-29T10:22:37.880Z,742.00
2023-03-29T10:23:37.820Z,736.00
2023-03-29T10:24:38.129Z,731.00
2023-03-29T10:25:39.215Z,729.00
2023-03-29T10:26:37.869Z,729.00
2023-03-29T10:27:37.852Z,732.00
2023-03-29T10:28:37.791Z,736.00
2023-03-29T10:29:37.825Z,735.00
2023-03-29T10:30:37.773Z,735.00
2023-03-29T10:31:37.805Z,734.00
2023-03-29T10:32:37.949Z,731.00
2023-03-29T10:33:37.788Z,725.00
2023-03-29T10:34:37.744Z,723.00
2023-03-29T10:35:37.820Z,717.00
2023-03-29T10:36:37.730Z,712.00
2023-03-29T10:37:37.745Z,708.00
2023-03-29T10:38:37.744Z,701.00
2023-03-29T10:39:37.744Z,699.00
2023-03-29T10:40:37.713Z,695.00
2023-03-29T10:41:37.701Z,694.00
2023-03-29T10:42:37.682Z,690.00
2023-03-29T10:43:37.705Z,686.00
2023-03-29T10:44:37.687Z,684.00
2023-03-29T10:45:37.665Z,681.00
2023-03-29T10:46:37.735Z,677.00
2023-03-29T10:47:37.664Z,673.00
2023-03-29T10:48:37.642Z,671.00
2023-03-29T10:49:37.657Z,662.00
2023-03-29T10:50:37.617Z,656.00
2023-03-29T10:51:37.617Z,638.00
2023-03-29T10:52:37.617Z,603.00
2023-03-29T10:53:37.638Z,573.00
2023-03-29T10:54:37.610Z,567.00
2023-03-29T10:55:37.628Z,559.00
2023-03-29T10:56:37.620Z,582.00
2023-03-29T10:57:37.843Z,594.00
2023-03-29T10:58:37.593Z,584.00
2023-03-29T10:59:37.680Z,588.00
2023-03-29T11:00:37.642Z,590.00
2023-03-29T11:01:37.813Z,594.00
2023-03-29T11:02:37.836Z,593.00
2023-03-29T11:03:37.994Z,594.00
2023-03-29T11:04:37.855Z,593.00
2023-03-29T11:05:37.921Z,595.00
2023-03-29T11:06:38.018Z,596.00
2023-03-29T11:07:38.071Z,596.00
2023-03-29T11:08:38.082Z,593.00
2023-03-29T11:09:38.165Z,593.00
2023-03-29T11:10:38.224Z,594.00
2023-03-29T11:11:38.295Z,594.00
2023-03-29T11:12:38.326Z,590.00
2023-03-29T11:13:38.372Z,588.00
2023-03-29T11:14:38.431Z,587.00
2023-03-29T11:15:38.747Z,587.00
2023-03-29T11:16:38.517Z,585.00
2023-03-29T11:17:38.632Z,585.00
2023-03-29T11:18:38.624Z,585.00
2023-03-29T11:19:38.648Z,582.00
2023-03-29T11:20:38.722Z,578.00
2023-03-29T11:21:38.770Z,577.00
2023-03-29T11:22:38.816Z,574.00
2023-03-29T11:23:38.864Z,571.00
2023-03-29T11:24:38.917Z,567.00
2023-03-29T11:25:38.940Z,566.00
2023-03-29T11:26:38.990Z,564.00
2023-03-29T11:27:39.019Z,561.00
2023-03-29T11:28:39.075Z,560.00
2023-03-29T11:29:39.119Z,560.00
2023-03-29T11:30:39.168Z,558.00
2023-03-29T11:31:39.320Z,556.00
2023-03-29T11:32:39.244Z,558.00
2023-03-29T11:33:39.292Z,556.00
2023-03-29T11:34:39.327Z,555.00
2023-03-29T11:35:39.428Z,552.00
2023-03-29T11:36:39.438Z,548.00
2023-03-29T11:37:39.474Z,547.00
2023-03-29T11:38:39.504Z,546.00
2023-03-29T11:39:39.547Z,543.00
2023-03-29T11:40:39.586Z,540.00
2023-03-29T11:41:39.648Z,537.00
2023-03-29T11:42:39.657Z,538.00
2023-03-29T11:43:39.720Z,536.00
2023-03-29T11:44:39.725Z,533.00
2023-03-29T11:45:39.798Z,530.00
2023-03-29T11:46:39.853Z,530.00
2023-03-29T11:47:39.952Z,531.00
2023-03-29T11:48:39.883Z,529.00
2023-03-29T11:49:39.937Z,529.00
2023-03-29T11:50:39.937Z,529.00
2023-03-29T11:51:40.011Z,528.00
2023-03-29T11:52:40.098Z,526.00
2023-03-29T11:53:40.046Z,524.00
2023-03-29T11:54:40.631Z,522.00
2023-03-29T11:55:40.136Z,519.00
2023-03-29T11:56:40.225Z,519.00
2023-03-29T11:57:40.671Z,519.00
2023-03-29T11:58:40.215Z,516.00
2023-03-29T11:59:40.258Z,516.00
2023-03-29T12:00:40.287Z,516.00
2023-03-29T12:01:40.341Z,515.00
2023-03-29T12:02:40.882Z,513.00
2023-03-29T12:03:40.546Z,513.00
2023-03-29T12:04:40.428Z,513.00
2023-03-29T12:05:40.469Z,510.00
2023-03-29T12:06:40.488Z,504.00
2023-03-29T12:07:40.576Z,503.00
2023-03-29T12:08:40.583Z,502.00
2023-03-29T12:09:40.656Z,503.00
2023-03-29T12:10:40.670Z,503.00
2023-03-29T12:11:40.705Z,502.00
2023-03-29T12:12:41.172Z,503.00
2023-03-29T12:13:40.754Z,502.00
2023-03-29T12:14:40.813Z,501.00
2023-03-29T12:15:40.858Z,501.00
2023-03-29T12:16:41.011Z,501.00
2023-03-29T12:17:40.971Z,498.00
2023-03-29T12:18:41.008Z,498.00
2023-03-29T12:19:43.554Z,499.00
2023-03-29T12:20:40.999Z,499.00
2023-03-29T12:21:41.032Z,500.00
2023-03-29T12:22:40.997Z,501.00
2023-03-29T12:23:41.008Z,500.00
2023-03-29T12:24:40.971Z,500.00
2023-03-29T12:25:40.947Z,498.00
2023-03-29T12:26:40.990Z,494.00
2023-03-29T12:27:40.945Z,492.00
2023-03-29T12:28:40.980Z,490.00